createdAt,value
2019-01-18T00:00:50.346Z,5.20
2019-01-18T00:03:18.507Z,9.40
2019-01-18T00:05:46.662Z,6.33
2019-01-18T00:08:14.747Z,6.67
2019-01-18T00:10:42.941Z,6.03
2019-01-18T00:13:11.196Z,5.60
2019-01-18T00:15:39.180Z,5.13
2019-01-18T00:18:07.180Z,6.57
2019-01-18T00:20:35.033Z,5.20
2019-01-18T00:23:03.101Z,6.63
2019-01-18T00:25:30.926Z,4.67
2019-01-18T00:27:58.856Z,6.10
2019-01-18T00:30:26.761Z,6.97
2019-01-18T00:32:54.885Z,5.67
2019-01-18T00:35:22.831Z,6.33
2019-01-18T00:37:50.875Z,5.60
2019-01-18T00:40:19.162Z,5.50
2019-01-18T00:42:47.523Z,5.40
2019-01-18T00:45:15.773Z,7.77
2019-01-18T00:47:43.967Z,6.43
2019-01-18T00:50:14.062Z,7.57
2019-01-18T00:52:42.253Z,7.00
2019-01-18T00:55:10.816Z,8.70
2019-01-18T00:57:39.237Z,6.83
2019-01-18T01:00:16.657Z,6.40
2019-01-18T01:02:45.208Z,6.87
2019-01-18T01:05:13.400Z,6.10
2019-01-18T01:07:41.452Z,9.70
2019-01-18T01:10:10.171Z,8.03
2019-01-18T01:12:38.834Z,6.13
2019-01-18T01:15:09.519Z,5.87
2019-01-18T01:17:37.514Z,4.13
2019-01-18T01:20:06.011Z,4.43
2019-01-18T01:22:33.988Z,5.03
2019-01-18T01:25:02.014Z,4.70
2019-01-18T01:27:29.972Z,6.10
2019-01-18T01:29:57.988Z,7.20
2019-01-18T01:32:25.928Z,3.57
2019-01-18T01:34:54.185Z,6.00
2019-01-18T01:37:22.057Z,3.53
2019-01-18T01:39:50.234Z,2.60
2019-01-18T01:42:18.372Z,3.00
2019-01-18T01:44:46.377Z,3.10
2019-01-18T01:47:14.437Z,3.20
2019-01-18T01:49:42.417Z,3.23
2019-01-18T01:52:10.359Z,2.63
2019-01-18T01:54:38.539Z,3.13
2019-01-18T01:57:06.457Z,3.83
2019-01-18T01:59:34.330Z,2.63
2019-01-18T02:02:02.326Z,2.57
2019-01-18T02:04:30.356Z,3.00
2019-01-18T02:06:58.245Z,2.40
2019-01-18T02:09:26.216Z,2.47
2019-01-18T02:11:54.176Z,2.70
2019-01-18T02:14:22.566Z,1.90
2019-01-18T02:16:50.673Z,2.27
2019-01-18T02:19:18.668Z,2.23
2019-01-18T02:21:46.601Z,2.27
2019-01-18T02:24:14.470Z,2.63
2019-01-18T02:26:42.847Z,4.03
2019-01-18T02:29:10.767Z,2.70
2019-01-18T02:31:38.677Z,2.93
2019-01-18T02:34:06.602Z,3.57
2019-01-18T02:36:34.675Z,2.47
2019-01-18T02:39:04.532Z,2.87
2019-01-18T02:41:32.828Z,3.50
2019-01-18T02:44:00.845Z,4.30
2019-01-18T02:46:29.303Z,3.30
2019-01-18T02:48:57.853Z,2.10
2019-01-18T02:51:26.080Z,2.07
2019-01-18T02:53:54.394Z,1.77
2019-01-18T02:56:22.789Z,1.93
2019-01-18T02:58:51.269Z,1.90
2019-01-18T03:01:19.495Z,2.13
2019-01-18T03:03:47.453Z,3.20
2019-01-18T03:06:15.412Z,1.83
2019-01-18T03:08:43.840Z,2.27
2019-01-18T03:11:11.732Z,1.70
2019-01-18T03:13:39.680Z,2.03
2019-01-18T03:16:08.435Z,1.50
2019-01-18T03:18:36.489Z,1.97
2019-01-18T03:21:04.379Z,2.13
2019-01-18T03:23:32.274Z,1.60
2019-01-18T03:26:00.288Z,3.37
2019-01-18T03:28:28.321Z,1.60
2019-01-18T03:30:56.438Z,2.20
2019-01-18T03:33:24.253Z,1.93
2019-01-18T03:35:52.211Z,2.17
2019-01-18T03:38:20.121Z,3.87
2019-01-18T03:40:48.077Z,3.23
2019-01-18T03:43:15.993Z,1.90
2019-01-18T03:45:44.354Z,1.80
2019-01-18T03:48:12.506Z,3.60
2019-01-18T03:50:40.505Z,2.07
2019-01-18T03:53:08.914Z,3.13
2019-01-18T03:55:36.876Z,2.50
2019-01-18T03:58:05.233Z,2.90
2019-01-18T04:00:33.273Z,3.80
2019-01-18T04:03:01.331Z,2.53
2019-01-18T04:05:29.369Z,2.73
2019-01-18T04:07:57.442Z,3.27
2019-01-18T04:10:25.747Z,5.83
2019-01-18T04:12:54.057Z,4.07
2019-01-18T04:15:23.599Z,3.17
2019-01-18T04:17:51.466Z,3.03
2019-01-18T04:20:20.107Z,2.40
2019-01-18T04:22:48.257Z,2.33
2019-01-18T04:25:28.946Z,2.67
2019-01-18T04:27:56.906Z,2.90
2019-01-18T04:30:25.062Z,3.00
2019-01-18T04:32:53.183Z,3.13
2019-01-18T04:35:21.284Z,3.53
2019-01-18T04:37:49.880Z,3.20
2019-01-18T04:40:20.227Z,4.37
2019-01-18T04:42:48.176Z,4.77
2019-01-18T04:45:16.267Z,2.47
2019-01-18T04:47:44.619Z,4.70
2019-01-18T04:50:17.639Z,2.57
2019-01-18T04:52:45.716Z,4.13
2019-01-18T04:55:13.954Z,3.23
2019-01-18T04:57:41.969Z,2.20
2019-01-18T05:00:16.215Z,3.43
2019-01-18T05:02:44.645Z,3.50
2019-01-18T05:05:12.797Z,4.67
2019-01-18T05:07:41.020Z,3.53
2019-01-18T05:10:10.432Z,2.60
2019-01-18T05:12:38.569Z,4.30
2019-01-18T05:15:09.158Z,3.73
2019-01-18T05:17:37.103Z,2.83
2019-01-18T05:20:05.650Z,4.20
2019-01-18T05:22:34.066Z,3.07
2019-01-18T05:25:02.423Z,3.30
2019-01-18T05:27:30.400Z,5.53
2019-01-18T05:29:58.306Z,4.73
2019-01-18T05:32:26.414Z,5.50
2019-01-18T05:34:54.626Z,3.40
2019-01-18T05:37:22.902Z,4.83
2019-01-18T05:39:51.210Z,5.33
2019-01-18T05:42:19.171Z,4.73
2019-01-18T05:44:47.532Z,4.10
2019-01-18T05:47:15.491Z,3.93
2019-01-18T05:49:43.867Z,4.87
2019-01-18T05:52:11.799Z,3.97
2019-01-18T05:54:39.827Z,3.87
2019-01-18T05:57:08.106Z,4.83
2019-01-18T05:59:36.480Z,4.83
2019-01-18T06:02:04.665Z,5.63
2019-01-18T06:04:32.854Z,5.47
2019-01-18T06:07:00.750Z,5.63
2019-01-18T06:09:29.405Z,6.13
2019-01-18T06:11:57.378Z,5.77
2019-01-18T06:14:28.889Z,5.47
2019-01-18T06:16:56.867Z,5.03
2019-01-18T06:19:25.381Z,6.83
2019-01-18T06:21:53.967Z,5.90
2019-01-18T06:24:22.061Z,4.90
2019-01-18T06:26:49.979Z,7.33
2019-01-18T06:29:18.492Z,5.50
2019-01-18T06:31:46.405Z,7.83
2019-01-18T06:34:14.492Z,7.40
2019-01-18T06:36:42.920Z,11.23
2019-01-18T06:39:10.892Z,9.20
2019-01-18T06:41:48.644Z,8.47
2019-01-18T06:44:16.663Z,7.97
2019-01-18T06:46:44.585Z,8.77
2019-01-18T06:49:13.214Z,8.37
2019-01-18T06:51:43.930Z,9.53
2019-01-18T06:54:12.163Z,6.70
2019-01-18T06:56:40.194Z,7.50
2019-01-18T06:59:08.155Z,6.20
2019-01-18T07:01:36.562Z,7.13
2019-01-18T07:04:04.582Z,8.73
2019-01-18T07:06:32.636Z,7.73
2019-01-18T07:09:00.597Z,8.53
2019-01-18T07:11:29.142Z,6.90
2019-01-18T07:13:57.175Z,6.90
2019-01-18T07:16:25.208Z,7.77
2019-01-18T07:18:53.236Z,6.60
2019-01-18T07:21:21.426Z,5.87
2019-01-18T07:23:49.503Z,7.40
2019-01-18T07:26:17.935Z,5.37
2019-01-18T07:28:46.065Z,5.60
2019-01-18T07:31:15.208Z,6.83
2019-01-18T07:33:43.469Z,6.93
2019-01-18T07:36:11.401Z,5.27
2019-01-18T07:38:39.820Z,6.50
2019-01-18T07:41:08.554Z,7.03
2019-01-18T07:43:36.447Z,5.47
2019-01-18T07:46:04.933Z,7.77
2019-01-18T07:48:33.046Z,7.30
2019-01-18T07:51:01.042Z,8.47
2019-01-18T07:53:29.112Z,7.57
2019-01-18T07:55:57.476Z,11.73
2019-01-18T07:58:25.492Z,10.83
2019-01-18T08:00:53.979Z,10.13
2019-01-18T08:03:22.056Z,13.37
2019-01-18T08:05:50.080Z,19.93
2019-01-18T08:08:17.943Z,23.10
2019-01-18T08:10:45.944Z,31.27
2019-01-18T08:13:14.171Z,32.10
2019-01-18T08:15:42.180Z,41.40
2019-01-18T08:18:10.233Z,39.70
2019-01-18T08:20:38.202Z,28.90
2019-01-18T08:23:06.121Z,22.17
2019-01-18T08:25:33.968Z,21.40
2019-01-18T08:28:02.690Z,25.30
2019-01-18T08:30:31.589Z,18.03
2019-01-18T08:32:59.677Z,11.40
2019-01-18T08:35:28.526Z,14.67
2019-01-18T08:37:56.495Z,12.73
2019-01-18T08:40:26.734Z,17.57
2019-01-18T08:42:55.078Z,21.97
2019-01-18T08:45:26.360Z,24.63
2019-01-18T08:47:54.897Z,16.50
2019-01-18T08:50:23.140Z,16.33
2019-01-18T08:52:51.149Z,18.33
2019-01-18T08:55:19.198Z,15.83
2019-01-18T08:57:47.473Z,10.97
2019-01-18T09:00:17.672Z,13.60
2019-01-18T09:02:45.539Z,12.63
2019-01-18T09:05:15.751Z,11.53
2019-01-18T09:07:43.618Z,12.03
2019-01-18T09:10:13.533Z,11.57
2019-01-18T09:12:41.575Z,14.77
2019-01-18T09:15:10.185Z,12.50
2019-01-18T09:17:39.000Z,14.77
2019-01-18T09:20:11.039Z,13.47
2019-01-18T09:22:39.157Z,19.77
2019-01-18T09:25:07.379Z,16.93
2019-01-18T09:27:35.857Z,18.27
2019-01-18T09:30:05.456Z,13.00
2019-01-18T09:32:33.947Z,10.83
2019-01-18T09:35:02.055Z,11.40
2019-01-18T09:37:30.096Z,9.00
2019-01-18T09:39:58.027Z,10.83
2019-01-18T09:42:25.911Z,12.37
2019-01-18T09:44:54.165Z,13.70
2019-01-18T09:47:22.148Z,10.40
2019-01-18T09:49:50.093Z,9.27
2019-01-18T09:52:18.333Z,9.27
2019-01-18T09:54:46.323Z,8.97
2019-01-18T09:57:14.250Z,7.93
2019-01-18T09:59:42.258Z,8.90
2019-01-18T10:02:10.525Z,7.23
2019-01-18T10:04:38.473Z,9.10
2019-01-18T10:07:06.277Z,7.30
2019-01-18T10:09:34.502Z,6.23
2019-01-18T10:12:02.822Z,6.97
2019-01-18T10:14:59.049Z,6.47
2019-01-18T10:17:27.437Z,8.60
2019-01-18T10:19:55.572Z,7.20
2019-01-18T10:22:23.490Z,7.47
2019-01-18T10:24:51.500Z,7.77
2019-01-18T10:27:23.878Z,7.27
2019-01-18T10:29:49.752Z,8.10
2019-01-18T10:32:18.235Z,7.90
2019-01-18T10:34:46.207Z,6.90
2019-01-18T10:37:14.416Z,6.93
2019-01-18T10:39:42.286Z,7.00
2019-01-18T10:42:10.340Z,7.83
2019-01-18T10:44:38.644Z,6.60
2019-01-18T10:47:06.586Z,6.97
2019-01-18T10:49:34.912Z,7.83
2019-01-18T10:52:03.342Z,7.23
2019-01-18T10:54:31.579Z,6.23
2019-01-18T10:56:59.895Z,6.23
2019-01-18T10:59:27.809Z,6.30
2019-01-18T11:02:00.668Z,6.93
2019-01-18T11:04:25.621Z,5.50
2019-01-18T11:06:53.628Z,8.53
2019-01-18T11:09:21.461Z,7.03
2019-01-18T11:11:49.496Z,5.73
2019-01-18T11:14:27.838Z,5.57
2019-01-18T11:16:55.786Z,4.63
2019-01-18T11:19:23.911Z,6.53
2019-01-18T11:21:52.633Z,7.57
2019-01-18T11:24:20.724Z,4.80
2019-01-18T11:26:48.820Z,5.73
2019-01-18T11:29:16.755Z,8.47
2019-01-18T11:31:44.786Z,8.10
2019-01-18T11:34:12.908Z,6.10
2019-01-18T11:36:41.009Z,7.73
2019-01-18T11:39:09.195Z,7.90
2019-01-18T11:41:37.227Z,7.63
2019-01-18T11:44:05.510Z,7.13
2019-01-18T11:46:33.445Z,5.67
2019-01-18T11:49:01.884Z,7.70
2019-01-18T11:51:30.388Z,7.57
2019-01-18T11:53:58.507Z,5.17
2019-01-18T11:56:26.487Z,6.13
2019-01-18T11:58:54.445Z,8.00
2019-01-18T12:01:22.351Z,4.03
2019-01-18T12:03:50.214Z,8.03
2019-01-18T12:06:18.191Z,6.47
2019-01-18T12:08:46.534Z,4.17
2019-01-18T12:11:24.729Z,4.97
2019-01-18T12:13:52.571Z,5.80
2019-01-18T12:16:20.921Z,6.93
2019-01-18T12:18:49.423Z,5.67
2019-01-18T12:21:17.677Z,8.70
2019-01-18T12:23:45.843Z,6.13
2019-01-18T12:26:14.359Z,7.67
2019-01-18T12:28:42.293Z,8.30
2019-01-18T12:31:10.334Z,6.73
2019-01-18T12:33:38.337Z,5.83
2019-01-18T12:36:07.440Z,6.07
2019-01-18T12:38:35.426Z,4.20
2019-01-18T12:41:03.932Z,4.47
2019-01-18T12:43:32.057Z,5.33
2019-01-18T12:46:00.016Z,6.87
2019-01-18T12:48:28.069Z,4.30
2019-01-18T12:50:55.958Z,3.73
2019-01-18T12:53:23.869Z,5.00
2019-01-18T12:55:51.879Z,5.33
2019-01-18T12:58:19.806Z,5.17
2019-01-18T13:00:47.703Z,6.40
2019-01-18T13:03:15.835Z,5.30
2019-01-18T13:05:48.921Z,5.17
2019-01-18T13:08:17.156Z,5.00
2019-01-18T13:10:45.066Z,6.40
2019-01-18T13:13:12.970Z,6.03
2019-01-18T13:16:03.397Z,5.43
2019-01-18T13:18:32.174Z,5.30
2019-01-18T13:21:00.378Z,4.67
2019-01-18T13:23:28.484Z,3.77
2019-01-18T13:25:56.404Z,5.03
2019-01-18T13:28:24.238Z,5.67
2019-01-18T13:30:52.207Z,5.37
2019-01-18T13:33:20.242Z,5.43
2019-01-18T13:35:48.281Z,7.67
2019-01-18T13:38:16.303Z,4.23
2019-01-18T13:40:44.360Z,5.17
2019-01-18T13:43:12.417Z,6.87
2019-01-18T13:45:40.459Z,4.00
2019-01-18T13:48:08.425Z,5.43
2019-01-18T13:50:36.516Z,6.30
2019-01-18T13:53:04.632Z,4.03
2019-01-18T13:55:32.856Z,5.40
2019-01-18T13:58:01.354Z,7.30
2019-01-18T14:00:29.568Z,6.80
2019-01-18T14:02:57.913Z,7.27
2019-01-18T14:05:26.324Z,4.30
2019-01-18T14:07:54.725Z,4.43
2019-01-18T14:10:27.329Z,5.83
2019-01-18T14:12:55.246Z,7.97
2019-01-18T14:15:58.432Z,5.63
2019-01-18T14:18:26.358Z,6.57
2019-01-18T14:20:54.703Z,5.37
2019-01-18T14:23:22.662Z,6.43
2019-01-18T14:25:50.620Z,19.57
2019-01-18T14:28:18.568Z,17.77
2019-01-18T14:30:46.695Z,19.03
2019-01-18T14:33:14.705Z,24.50
2019-01-18T14:35:42.961Z,26.47
2019-01-18T14:38:11.018Z,20.17
2019-01-18T14:40:38.912Z,18.43
2019-01-18T14:43:06.818Z,16.37
2019-01-18T14:45:37.321Z,13.33
2019-01-18T14:48:05.560Z,10.57
2019-01-18T14:50:33.427Z,7.70
2019-01-18T14:53:01.366Z,9.87
2019-01-18T14:55:29.311Z,11.47
2019-01-18T14:57:57.900Z,8.43
2019-01-18T15:00:29.863Z,10.80
2019-01-18T15:03:02.305Z,10.27
2019-01-18T15:05:27.613Z,11.40
2019-01-18T15:07:55.734Z,17.27
2019-01-18T15:10:23.946Z,21.87
2019-01-18T15:12:54.211Z,17.43
2019-01-18T15:15:41.015Z,14.57
2019-01-18T15:18:08.907Z,15.80
2019-01-18T15:20:36.935Z,11.47
2019-01-18T15:23:05.284Z,14.07
2019-01-18T15:25:33.355Z,16.40
2019-01-18T15:28:01.698Z,18.10
2019-01-18T15:30:30.460Z,20.90
2019-01-18T15:32:58.516Z,21.03
2019-01-18T15:35:28.888Z,20.70
2019-01-18T15:37:57.217Z,21.23
2019-01-18T15:40:26.548Z,20.97
2019-01-18T15:42:56.233Z,23.50
2019-01-18T15:45:24.754Z,19.20
2019-01-18T15:47:52.629Z,19.93
2019-01-18T15:50:26.200Z,21.50
2019-01-18T15:52:54.360Z,20.40
2019-01-18T15:55:22.842Z,20.03
2019-01-18T15:57:50.983Z,23.13
2019-01-18T16:00:24.753Z,21.30
2019-01-18T16:02:53.014Z,19.87
2019-01-18T16:05:21.260Z,20.70
2019-01-18T16:07:49.265Z,19.10
2019-01-18T16:10:17.268Z,27.37
2019-01-18T16:12:45.711Z,28.60
2019-01-18T16:15:49.499Z,84.17
2019-01-18T16:18:17.240Z,69.73
2019-01-18T16:20:45.316Z,190.73
2019-01-18T16:23:13.801Z,219.07
2019-01-18T16:25:42.228Z,200.07
2019-01-18T16:28:10.354Z,174.87
2019-01-18T16:30:38.397Z,125.80
2019-01-18T16:33:06.354Z,74.07
2019-01-18T16:35:34.403Z,77.70
2019-01-18T16:38:02.674Z,47.60
2019-01-18T16:40:32.211Z,33.20
2019-01-18T16:43:15.516Z,28.37
2019-01-18T16:45:43.476Z,22.73
2019-01-18T16:48:11.962Z,22.10
2019-01-18T16:50:39.885Z,16.73
2019-01-18T16:53:07.964Z,17.43
2019-01-18T16:55:36.103Z,14.70
2019-01-18T16:58:04.506Z,14.67
2019-01-18T17:00:34.952Z,14.10
2019-01-18T17:03:03.665Z,15.27
2019-01-18T17:05:32.020Z,19.43
2019-01-18T17:07:59.874Z,14.83
2019-01-18T17:10:28.275Z,16.20
2019-01-18T17:12:57.087Z,15.27
2019-01-18T17:15:43.281Z,29.73
2019-01-18T17:18:11.329Z,30.17
2019-01-18T17:20:40.822Z,25.60
2019-01-18T17:23:09.100Z,19.13
2019-01-18T17:25:37.045Z,19.93
2019-01-18T17:28:05.565Z,22.87
2019-01-18T17:30:33.631Z,22.73
2019-01-18T17:33:02.107Z,17.53
2019-01-18T17:35:54.066Z,21.67
2019-01-18T17:38:53.102Z,21.63
2019-01-18T17:41:35.808Z,17.53
2019-01-18T17:44:55.820Z,15.90
2019-01-18T17:47:48.722Z,10.40
2019-01-18T17:50:32.350Z,19.73
2019-01-18T17:53:35.063Z,23.43
2019-01-18T17:56:41.820Z,22.30
2019-01-18T18:00:08.221Z,23.63
2019-01-18T18:03:11.848Z,18.13
2019-01-18T18:06:24.104Z,26.60
2019-01-18T18:08:58.829Z,20.77
2019-01-18T18:11:52.315Z,10.63
2019-01-18T18:15:18.626Z,12.33
2019-01-18T18:18:14.495Z,16.87
2019-01-18T18:21:22.696Z,13.97
2019-01-18T18:24:31.199Z,7.57
2019-01-18T18:27:51.568Z,13.30
2019-01-18T18:34:58.137Z,25.33
2019-01-18T18:38:07.584Z,23.53
2019-01-18T18:41:31.233Z,24.37
2019-01-18T18:44:53.099Z,25.47
2019-01-18T18:47:58.398Z,20.07
2019-01-18T18:50:54.748Z,12.67
2019-01-18T18:54:06.885Z,11.83
2019-01-18T18:56:46.354Z,11.13
2019-01-18T18:59:52.709Z,12.03
2019-01-18T19:03:35.751Z,11.40
2019-01-18T19:06:37.770Z,11.43
2019-01-18T19:09:53.565Z,13.50
2019-01-18T19:13:01.711Z,10.63
2019-01-18T19:16:51.329Z,19.07
2019-01-18T19:19:52.093Z,22.00
2019-01-18T19:22:54.241Z,19.83
2019-01-18T19:26:18.517Z,16.50
2019-01-18T19:29:12.127Z,9.90
2019-01-18T19:32:43.228Z,11.33
2019-01-18T19:36:13.683Z,8.63
2019-01-18T19:39:13.805Z,9.40
2019-01-18T19:42:38.259Z,15.93
2019-01-18T19:45:47.780Z,13.93
2019-01-18T19:48:53.006Z,14.23
2019-01-18T19:51:47.495Z,12.07
2019-01-18T19:54:44.339Z,13.90
2019-01-18T19:58:02.840Z,18.07
2019-01-18T20:01:11.304Z,17.70
2019-01-18T20:04:22.209Z,17.43
2019-01-18T20:07:37.956Z,19.57
2019-01-18T20:10:46.419Z,21.83
2019-01-18T20:13:44.063Z,18.93
2019-01-18T20:16:57.266Z,24.20
2019-01-18T20:20:08.510Z,26.23
2019-01-18T20:23:17.722Z,22.97
2019-01-18T20:25:59.625Z,21.57
2019-01-18T20:29:00.885Z,30.90
2019-01-18T20:32:04.198Z,22.67
2019-01-18T20:35:14.931Z,12.30
2019-01-18T20:38:02.329Z,10.80
2019-01-18T20:41:23.717Z,8.80
2019-01-18T20:44:30.013Z,9.43
2019-01-18T20:47:41.198Z,13.13
2019-01-18T20:51:02.593Z,12.43
2019-01-18T20:53:52.071Z,12.17
2019-01-18T20:56:41.261Z,13.90
2019-01-18T20:59:42.230Z,10.27
2019-01-18T21:02:42.083Z,9.40
2019-01-18T21:05:47.188Z,7.13
2019-01-18T21:08:53.908Z,6.80
2019-01-18T21:11:53.437Z,6.60
2019-01-18T21:15:00.428Z,8.27
2019-01-18T21:18:02.341Z,13.87
2019-01-18T21:20:51.924Z,9.10
2019-01-18T21:24:04.863Z,18.00
2019-01-18T21:27:12.121Z,10.13
2019-01-18T21:30:06.378Z,8.43
2019-01-18T21:33:08.298Z,13.40
2019-01-18T21:35:47.975Z,11.10
2019-01-18T21:38:55.432Z,12.17
2019-01-18T21:41:53.940Z,12.10
2019-01-18T21:44:57.393Z,17.87
2019-01-18T21:47:56.050Z,18.53
2019-01-18T21:50:49.666Z,13.27
2019-01-18T21:53:44.735Z,11.83
2019-01-18T21:57:00.344Z,15.03
2019-01-18T22:00:21.713Z,14.63
2019-01-18T22:03:14.458Z,15.50
2019-01-18T22:06:36.456Z,13.47
2019-01-18T22:09:33.668Z,12.37
2019-01-18T22:12:41.779Z,17.63
2019-01-18T22:16:16.241Z,12.87
2019-01-18T22:19:25.689Z,10.53
2019-01-18T22:22:28.617Z,9.97
2019-01-18T22:25:26.355Z,9.40
2019-01-18T22:28:37.773Z,9.90
2019-01-18T22:32:03.693Z,11.03
2019-01-18T22:35:21.825Z,10.63
2019-01-18T22:38:21.318Z,11.63
2019-01-18T22:41:17.574Z,9.97
2019-01-18T22:44:33.264Z,10.00
2019-01-18T22:47:50.537Z,10.33
2019-01-18T22:50:52.251Z,9.50
2019-01-18T22:54:01.933Z,8.13
2019-01-18T22:56:47.071Z,10.03
2019-01-18T22:59:58.774Z,9.53
2019-01-18T23:02:50.048Z,8.90
2019-01-18T23:05:42.777Z,9.37
2019-01-18T23:08:46.789Z,8.27
2019-01-18T23:11:51.815Z,9.43
2019-01-18T23:15:06.872Z,9.97
2019-01-18T23:18:12.784Z,9.83
2019-01-18T23:21:00.628Z,9.60
2019-01-18T23:24:00.389Z,8.43
2019-01-18T23:26:55.328Z,10.07
2019-01-18T23:29:43.116Z,8.87
2019-01-18T23:33:10.439Z,12.57
2019-01-18T23:36:03.836Z,10.17
2019-01-18T23:39:11.749Z,11.77
2019-01-18T23:42:08.265Z,9.13
2019-01-18T23:45:01.792Z,8.93
2019-01-18T23:48:20.354Z,9.33
2019-01-18T23:50:58.641Z,9.40
2019-01-18T23:54:12.482Z,8.83
2019-01-18T23:57:26.143Z,10.07
